createdAt,value
2019-05-21T00:00:30.769Z,21.93
2019-05-21T00:02:35.232Z,21.73
2019-05-21T00:04:39.479Z,21.45
2019-05-21T00:06:43.637Z,20.50
2019-05-21T00:08:47.826Z,19.57
2019-05-21T00:10:52.023Z,20.68
2019-05-21T00:12:56.168Z,20.00
2019-05-21T00:15:00.371Z,20.37
2019-05-21T00:17:04.564Z,20.82
2019-05-21T00:19:08.734Z,22.07
2019-05-21T00:21:12.889Z,22.05
2019-05-21T00:23:17.082Z,21.80
2019-05-21T00:25:21.270Z,22.73
2019-05-21T00:27:25.444Z,25.48
2019-05-21T00:30:05.950Z,23.57
2019-05-21T00:32:46.284Z,25.10
2019-05-21T00:35:28.672Z,26.52
2019-05-21T00:38:09.180Z,25.52
2019-05-21T00:40:49.255Z,27.13
2019-05-21T00:42:53.857Z,29.07
2019-05-21T00:44:58.147Z,29.60
2019-05-21T00:47:02.376Z,30.55
2019-05-21T00:49:06.596Z,31.45
2019-05-21T00:51:10.932Z,31.30
2019-05-21T00:53:15.087Z,31.07
2019-05-21T00:55:19.266Z,32.05
2019-05-21T00:57:23.482Z,30.95
2019-05-21T00:59:27.641Z,29.63
2019-05-21T01:01:31.990Z,27.65
2019-05-21T01:03:36.276Z,28.15
2019-05-21T01:05:40.730Z,30.25
2019-05-21T01:07:44.955Z,30.95
2019-05-21T01:09:49.142Z,32.15
2019-05-21T01:11:53.314Z,33.10
2019-05-21T01:13:57.623Z,31.73
2019-05-21T01:16:01.819Z,31.95
2019-05-21T01:18:05.985Z,31.52
2019-05-21T01:20:10.153Z,31.87
2019-05-21T01:22:14.332Z,31.40
2019-05-21T01:24:18.478Z,31.42
2019-05-21T01:26:22.653Z,29.12
2019-05-21T01:28:26.948Z,31.75
2019-05-21T01:30:31.112Z,28.98
2019-05-21T01:32:35.341Z,31.57
2019-05-21T01:34:39.512Z,32.48
2019-05-21T01:36:43.660Z,31.07
2019-05-21T01:38:47.920Z,31.50
2019-05-21T01:40:52.132Z,32.25
2019-05-21T01:42:56.347Z,33.08
2019-05-21T01:45:00.523Z,33.13
2019-05-21T01:47:04.707Z,33.48
2019-05-21T01:49:08.875Z,33.80
2019-05-21T01:51:13.027Z,33.08
2019-05-21T01:53:17.212Z,31.82
2019-05-21T01:55:21.363Z,32.33
2019-05-21T01:57:25.691Z,32.93
2019-05-21T01:59:29.848Z,34.18
2019-05-21T02:01:34.027Z,33.55
2019-05-21T02:03:38.187Z,33.28
2019-05-21T02:05:42.418Z,33.08
2019-05-21T02:07:46.598Z,34.88
2019-05-21T02:09:59.912Z,34.53
2019-05-21T02:12:04.069Z,35.63
2019-05-21T02:14:08.253Z,34.45
2019-05-21T02:16:12.399Z,36.73
2019-05-21T02:18:16.588Z,35.75
2019-05-21T02:20:20.784Z,37.30
2019-05-21T02:22:24.934Z,36.10
2019-05-21T02:24:29.111Z,34.75
2019-05-21T02:26:33.262Z,36.48
2019-05-21T02:28:37.455Z,35.45
2019-05-21T02:30:41.773Z,35.15
2019-05-21T02:32:46.049Z,35.08
2019-05-21T02:34:50.205Z,36.25
2019-05-21T02:36:54.369Z,34.75
2019-05-21T02:38:58.537Z,34.43
2019-05-21T02:41:02.829Z,35.10
2019-05-21T02:43:07.176Z,34.80
2019-05-21T02:45:11.670Z,35.65
2019-05-21T02:47:15.890Z,32.33
2019-05-21T02:49:20.103Z,33.13
2019-05-21T02:51:24.278Z,36.53
2019-05-21T02:53:28.475Z,34.03
2019-05-21T02:55:32.883Z,33.75
2019-05-21T02:57:41.375Z,34.98
2019-05-21T02:59:47.537Z,33.30
2019-05-21T03:02:00.793Z,33.30
2019-05-21T03:04:04.975Z,33.95
2019-05-21T03:06:14.772Z,31.42
2019-05-21T03:08:15.113Z,32.42
2019-05-21T03:10:19.453Z,30.92
2019-05-21T03:12:23.651Z,32.50
2019-05-21T03:14:27.816Z,31.73
2019-05-21T03:16:31.991Z,35.03
2019-05-21T03:18:36.170Z,30.55
2019-05-21T03:20:40.401Z,31.05
2019-05-21T03:22:44.568Z,31.37
2019-05-21T03:24:48.819Z,31.52
2019-05-21T03:26:52.990Z,32.83
2019-05-21T03:28:57.177Z,30.88
2019-05-21T03:31:01.435Z,30.75
2019-05-21T03:33:05.694Z,30.90
2019-05-21T03:35:11.353Z,31.23
2019-05-21T03:37:15.597Z,32.30
2019-05-21T03:39:19.933Z,29.00
2019-05-21T03:41:24.216Z,29.00
2019-05-21T03:43:28.392Z,27.87
2019-05-21T03:45:32.673Z,28.27
2019-05-21T03:47:36.837Z,28.62
2019-05-21T03:49:41.228Z,26.05
2019-05-21T03:51:45.396Z,27.85
2019-05-21T03:53:49.571Z,25.92
2019-05-21T03:55:53.831Z,25.62
2019-05-21T03:57:57.992Z,24.37
2019-05-21T04:00:02.177Z,25.35
2019-05-21T04:02:06.437Z,24.90
2019-05-21T04:04:10.680Z,24.47
2019-05-21T04:06:15.047Z,23.73
2019-05-21T04:08:19.581Z,22.98
2019-05-21T04:10:25.188Z,22.62
2019-05-21T04:12:29.760Z,22.93
2019-05-21T04:14:38.626Z,23.95
2019-05-21T04:16:53.425Z,23.55
2019-05-21T04:19:16.667Z,23.45
2019-05-21T04:21:20.895Z,24.70
2019-05-21T04:23:25.139Z,51.37
2019-05-21T04:25:29.302Z,26.70
2019-05-21T04:27:33.535Z,23.95
2019-05-21T04:29:38.233Z,24.67
2019-05-21T04:31:42.519Z,25.08
2019-05-21T04:33:46.705Z,22.70
2019-05-21T04:35:51.436Z,23.38
2019-05-21T04:37:57.740Z,23.60
2019-05-21T04:40:01.914Z,22.40
2019-05-21T04:42:06.177Z,22.35
2019-05-21T04:44:10.399Z,23.20
2019-05-21T04:46:14.581Z,21.95
2019-05-21T04:48:18.772Z,21.73
2019-05-21T04:50:22.923Z,22.48
2019-05-21T04:52:27.098Z,21.42
2019-05-21T04:54:31.280Z,21.37
2019-05-21T04:56:35.463Z,23.35
2019-05-21T04:58:39.645Z,21.40
2019-05-21T05:00:44.355Z,21.48
2019-05-21T05:02:48.603Z,21.07
2019-05-21T05:04:54.269Z,21.33
2019-05-21T05:06:59.849Z,23.77
2019-05-21T05:09:06.160Z,23.60
2019-05-21T05:11:10.319Z,24.00
2019-05-21T05:13:14.512Z,24.35
2019-05-21T05:15:18.883Z,21.77
2019-05-21T05:17:23.207Z,25.80
2019-05-21T05:19:27.378Z,24.15
2019-05-21T05:21:31.558Z,23.18
2019-05-21T05:23:35.754Z,23.50
2019-05-21T05:25:39.898Z,23.40
2019-05-21T05:27:44.092Z,23.90
2019-05-21T05:29:48.329Z,24.92
2019-05-21T05:31:52.512Z,25.30
2019-05-21T05:33:56.699Z,24.90
2019-05-21T05:36:00.887Z,26.45
2019-05-21T05:38:05.132Z,24.52
2019-05-21T05:40:10.429Z,24.15
2019-05-21T05:42:14.596Z,24.65
2019-05-21T05:44:18.810Z,28.32
2019-05-21T05:46:22.976Z,25.25
2019-05-21T05:48:27.914Z,25.55
2019-05-21T05:50:35.545Z,26.33
2019-05-21T05:52:39.798Z,27.45
2019-05-21T05:54:43.972Z,25.92
2019-05-21T05:56:48.125Z,27.22
2019-05-21T05:58:52.280Z,28.00
2019-05-21T06:00:56.538Z,24.82
2019-05-21T06:03:00.696Z,26.55
2019-05-21T06:05:05.574Z,27.32
2019-05-21T06:07:09.781Z,28.40
2019-05-21T06:09:13.938Z,25.55
2019-05-21T06:11:18.140Z,29.18
2019-05-21T06:13:22.323Z,25.75
2019-05-21T06:15:26.554Z,24.80
2019-05-21T06:17:30.761Z,26.82
2019-05-21T06:19:34.914Z,27.90
2019-05-21T06:21:39.114Z,27.00
2019-05-21T06:23:43.260Z,25.85
2019-05-21T06:25:47.433Z,28.45
2019-05-21T06:27:51.643Z,26.02
2019-05-21T06:29:55.826Z,26.60
2019-05-21T06:32:00.029Z,26.70
2019-05-21T06:34:04.784Z,26.33
2019-05-21T06:36:09.238Z,28.52
2019-05-21T06:38:17.669Z,27.87
2019-05-21T06:40:19.938Z,30.23
2019-05-21T06:42:24.158Z,30.43
2019-05-21T06:44:28.389Z,28.65
2019-05-21T06:46:32.565Z,30.25
2019-05-21T06:48:36.705Z,29.40
2019-05-21T06:50:40.951Z,33.85
2019-05-21T06:52:45.112Z,31.12
2019-05-21T06:54:49.362Z,29.27
2019-05-21T06:56:53.556Z,30.23
2019-05-21T06:58:57.723Z,30.30
2019-05-21T07:01:01.945Z,31.73
2019-05-21T07:03:06.134Z,30.65
2019-05-21T07:05:10.413Z,25.60
2019-05-21T07:07:14.584Z,19.20
2019-05-21T07:09:18.777Z,16.27
2019-05-21T07:11:23.031Z,15.70
2019-05-21T07:13:30.909Z,16.85
2019-05-21T07:15:33.124Z,16.15
2019-05-21T07:17:37.359Z,16.40
2019-05-21T07:19:41.625Z,17.15
2019-05-21T07:21:45.816Z,17.45
2019-05-21T07:23:49.976Z,16.87
2019-05-21T07:25:54.268Z,17.92
2019-05-21T07:27:58.567Z,18.20
2019-05-21T07:30:02.843Z,18.77
2019-05-21T07:32:07.120Z,18.80
2019-05-21T07:34:11.339Z,18.55
2019-05-21T07:36:15.540Z,22.50
2019-05-21T07:38:19.810Z,20.27
2019-05-21T07:40:24.089Z,20.32
2019-05-21T07:42:28.274Z,22.65
2019-05-21T07:44:33.625Z,23.05
2019-05-21T07:46:39.735Z,24.37
2019-05-21T07:48:43.838Z,24.90
2019-05-21T07:50:48.030Z,25.52
2019-05-21T07:52:53.896Z,27.42
2019-05-21T07:54:58.170Z,26.37
2019-05-21T07:57:02.867Z,25.55
2019-05-21T07:59:07.285Z,28.40
2019-05-21T08:01:11.463Z,28.32
2019-05-21T08:03:15.694Z,28.25
2019-05-21T08:05:19.893Z,29.55
2019-05-21T08:07:24.074Z,28.85
2019-05-21T08:09:28.350Z,29.15
2019-05-21T08:11:32.661Z,29.32
2019-05-21T08:13:36.852Z,28.70
2019-05-21T08:15:41.016Z,29.05
2019-05-21T08:17:45.168Z,28.32
2019-05-21T08:19:49.341Z,27.87
2019-05-21T08:21:53.714Z,27.58
2019-05-21T08:23:57.970Z,28.20
2019-05-21T08:26:02.154Z,28.65
2019-05-21T08:28:06.330Z,30.60
2019-05-21T08:30:10.839Z,31.82
2019-05-21T08:32:15.079Z,33.67
2019-05-21T08:34:19.282Z,35.17
2019-05-21T08:36:23.569Z,37.03
2019-05-21T08:38:27.718Z,38.65
2019-05-21T08:40:31.888Z,36.80
2019-05-21T08:42:36.187Z,36.90
2019-05-21T08:44:40.591Z,35.85
2019-05-21T08:46:44.784Z,35.05
2019-05-21T08:48:49.035Z,31.93
2019-05-21T08:50:53.219Z,31.68
2019-05-21T08:52:57.449Z,30.25
2019-05-21T08:55:01.619Z,27.22
2019-05-21T08:57:05.947Z,29.12
2019-05-21T08:59:10.120Z,28.07
2019-05-21T09:01:14.307Z,27.90
2019-05-21T09:03:18.507Z,25.48
2019-05-21T09:05:24.346Z,26.80
2019-05-21T09:07:28.509Z,24.57
2019-05-21T09:09:48.353Z,25.37
2019-05-21T09:11:40.731Z,23.20
2019-05-21T09:13:44.901Z,23.45
2019-05-21T09:15:49.076Z,27.02
2019-05-21T09:17:53.401Z,26.65
2019-05-21T09:19:57.574Z,26.27
2019-05-21T09:22:01.729Z,20.55
2019-05-21T09:24:05.908Z,24.50
2019-05-21T09:26:10.303Z,18.55
2019-05-21T09:28:14.489Z,17.10
2019-05-21T09:30:19.557Z,16.02
2019-05-21T09:32:23.707Z,17.32
2019-05-21T09:34:28.425Z,16.85
2019-05-21T09:36:32.619Z,16.48
2019-05-21T09:38:36.783Z,17.62
2019-05-21T09:40:41.131Z,14.65
2019-05-21T09:42:45.747Z,14.07
2019-05-21T09:44:50.197Z,13.68
2019-05-21T09:46:54.390Z,14.10
2019-05-21T09:48:58.600Z,13.58
2019-05-21T09:51:02.802Z,12.78
2019-05-21T09:53:07.081Z,13.22
2019-05-21T09:55:12.260Z,13.32
2019-05-21T09:57:20.113Z,13.25
2019-05-21T09:59:49.328Z,14.03
2019-05-21T10:01:55.917Z,13.10
2019-05-21T10:04:00.426Z,13.70
2019-05-21T10:06:04.768Z,13.60
2019-05-21T10:08:08.964Z,12.53
2019-05-21T10:10:13.541Z,11.78
2019-05-21T10:12:17.709Z,13.22
2019-05-21T10:14:21.918Z,11.78
2019-05-21T10:16:26.227Z,11.70
2019-05-21T10:18:30.369Z,10.98
2019-05-21T10:20:34.563Z,11.45
2019-05-21T10:22:40.616Z,10.50
2019-05-21T10:24:44.795Z,11.45
2019-05-21T10:26:48.988Z,12.40
2019-05-21T10:28:53.163Z,10.60
2019-05-21T10:30:57.347Z,12.60
2019-05-21T10:33:01.616Z,12.58
2019-05-21T10:35:06.169Z,12.10
2019-05-21T10:37:10.631Z,12.00
2019-05-21T10:39:15.389Z,12.10
2019-05-21T10:41:19.579Z,12.05
2019-05-21T10:43:23.742Z,11.95
2019-05-21T10:45:27.931Z,13.15
2019-05-21T10:47:31.642Z,12.93
2019-05-21T10:49:35.268Z,13.43
2019-05-21T10:51:38.977Z,14.03
2019-05-21T10:53:42.611Z,14.18
2019-05-21T10:55:46.337Z,15.48
2019-05-21T10:57:49.968Z,14.53
2019-05-21T10:59:53.627Z,14.98
2019-05-21T11:02:07.279Z,15.20
2019-05-21T11:04:16.629Z,15.20
2019-05-21T11:06:20.352Z,14.70
2019-05-21T11:08:25.170Z,15.60
2019-05-21T11:10:29.118Z,14.35
2019-05-21T11:12:32.832Z,14.35
2019-05-21T11:14:36.542Z,14.47
2019-05-21T11:16:40.232Z,14.47
2019-05-21T11:18:43.941Z,13.50
2019-05-21T11:20:47.607Z,13.98
2019-05-21T11:22:51.313Z,13.43
2019-05-21T11:24:55.017Z,13.40
2019-05-21T11:26:59.752Z,13.93
2019-05-21T11:29:03.567Z,14.50
2019-05-21T11:31:07.321Z,14.55
2019-05-21T11:33:11.190Z,15.88
2019-05-21T11:35:14.887Z,16.40
2019-05-21T11:37:18.633Z,19.60
2019-05-21T11:39:22.323Z,20.80
2019-05-21T11:41:25.976Z,19.52
2019-05-21T11:43:29.617Z,23.73
2019-05-21T11:45:33.352Z,20.62
2019-05-21T11:47:37.058Z,23.25
2019-05-21T11:49:40.795Z,22.93
2019-05-21T11:51:44.461Z,21.57
2019-05-21T11:53:48.169Z,21.85
2019-05-21T11:55:51.921Z,22.42
2019-05-21T11:57:55.745Z,22.20
2019-05-21T11:59:59.463Z,22.60
2019-05-21T12:02:03.371Z,22.70
2019-05-21T12:04:07.173Z,24.00
2019-05-21T12:06:10.949Z,22.30
2019-05-21T12:08:14.717Z,23.00
2019-05-21T12:10:18.425Z,22.93
2019-05-21T12:12:22.140Z,23.83
2019-05-21T12:14:25.801Z,22.85
2019-05-21T12:16:29.487Z,22.58
2019-05-21T12:18:33.129Z,23.38
2019-05-21T12:20:37.619Z,23.77
2019-05-21T12:22:41.399Z,25.02
2019-05-21T12:24:45.214Z,24.77
2019-05-21T12:26:48.906Z,25.97
2019-05-21T12:28:52.632Z,25.45
2019-05-21T12:30:56.321Z,26.52
2019-05-21T12:33:00.000Z,30.27
2019-05-21T12:35:03.907Z,28.07
2019-05-21T12:37:07.639Z,28.05
2019-05-21T12:39:14.590Z,27.35
2019-05-21T12:41:17.012Z,29.05
2019-05-21T12:43:20.704Z,30.05
2019-05-21T12:45:24.367Z,29.80
2019-05-21T12:47:28.130Z,29.23
2019-05-21T12:49:31.784Z,27.85
2019-05-21T12:51:35.397Z,26.93
2019-05-21T12:53:39.115Z,27.40
2019-05-21T12:55:42.782Z,26.30
2019-05-21T12:57:46.523Z,25.57
2019-05-21T12:59:50.182Z,23.65
2019-05-21T13:01:53.880Z,22.98
2019-05-21T13:03:57.519Z,23.60
2019-05-21T13:06:01.184Z,24.23
2019-05-21T13:08:05.184Z,22.75
2019-05-21T13:10:09.374Z,23.73
2019-05-21T13:12:13.175Z,22.58
2019-05-21T13:14:18.818Z,23.12
2019-05-21T13:16:22.401Z,22.27
2019-05-21T13:18:26.025Z,22.27
2019-05-21T13:20:29.999Z,20.60
2019-05-21T13:22:33.806Z,20.23
2019-05-21T13:24:37.641Z,20.92
2019-05-21T13:26:41.374Z,21.68
2019-05-21T13:28:45.153Z,20.50
2019-05-21T13:30:48.927Z,20.92
2019-05-21T13:32:52.613Z,22.10
2019-05-21T13:34:56.283Z,21.50
2019-05-21T13:36:59.930Z,21.45
2019-05-21T13:39:05.673Z,22.20
2019-05-21T13:41:09.796Z,22.95
2019-05-21T13:43:13.495Z,23.45
2019-05-21T13:45:17.261Z,23.30
2019-05-21T13:47:20.908Z,24.40
2019-05-21T13:49:24.571Z,24.90
2019-05-21T13:51:28.294Z,24.67
2019-05-21T13:53:32.002Z,24.47
2019-05-21T13:55:35.821Z,23.75
2019-05-21T13:57:39.573Z,22.67
2019-05-21T13:59:44.831Z,22.90
2019-05-21T14:01:48.604Z,23.05
2019-05-21T14:03:52.287Z,22.37
2019-05-21T14:05:57.390Z,23.45
2019-05-21T14:08:01.357Z,21.55
2019-05-21T14:10:15.732Z,22.02
2019-05-21T14:12:11.114Z,19.75
2019-05-21T14:14:14.903Z,22.07
2019-05-21T14:16:18.623Z,20.10
2019-05-21T14:18:22.359Z,20.95
2019-05-21T14:20:26.075Z,19.73
2019-05-21T14:22:29.771Z,18.87
2019-05-21T14:24:33.449Z,22.27
2019-05-21T14:26:37.176Z,20.27
2019-05-21T14:28:40.929Z,21.65
2019-05-21T14:30:44.661Z,22.48
2019-05-21T14:32:50.739Z,22.90
2019-05-21T14:35:01.361Z,22.90
2019-05-21T14:37:00.026Z,22.37
2019-05-21T14:39:06.796Z,23.90
2019-05-21T14:41:10.514Z,23.83
2019-05-21T14:43:14.185Z,25.43
2019-05-21T14:45:17.880Z,27.52
2019-05-21T14:47:21.602Z,26.87
2019-05-21T14:49:25.319Z,24.87
2019-05-21T14:51:28.955Z,22.45
2019-05-21T14:53:32.583Z,22.07
2019-05-21T14:55:36.326Z,20.88
2019-05-21T14:57:40.106Z,20.25
2019-05-21T14:59:43.946Z,20.30
2019-05-21T15:01:47.574Z,18.42
2019-05-21T15:03:55.528Z,21.95
2019-05-21T15:06:00.828Z,21.33
2019-05-21T15:08:04.625Z,17.77
2019-05-21T15:10:08.285Z,18.75
2019-05-21T15:12:11.997Z,18.52
2019-05-21T15:14:15.639Z,18.05
2019-05-21T15:16:19.490Z,17.42
2019-05-21T15:18:23.141Z,17.32
2019-05-21T15:20:52.097Z,18.40
2019-05-21T15:22:56.030Z,17.77
2019-05-21T15:25:01.674Z,17.35
2019-05-21T15:27:05.409Z,18.80
2019-05-21T15:29:09.149Z,18.87
2019-05-21T15:31:12.856Z,19.82
2019-05-21T15:33:16.606Z,19.90
2019-05-21T15:35:20.253Z,20.43
2019-05-21T15:37:23.974Z,20.35
2019-05-21T15:39:27.687Z,20.20
2019-05-21T15:41:31.348Z,20.43
2019-05-21T15:43:35.014Z,20.45
2019-05-21T15:45:38.732Z,20.68
2019-05-21T15:47:42.497Z,19.15
2019-05-21T15:49:46.120Z,18.77
2019-05-21T15:51:49.747Z,19.65
2019-05-21T15:53:53.405Z,19.98
2019-05-21T15:55:57.115Z,19.15
2019-05-21T15:58:00.952Z,19.90
2019-05-21T16:00:05.301Z,18.42
2019-05-21T16:02:09.011Z,19.20
2019-05-21T16:04:16.409Z,48.95
2019-05-21T16:06:18.187Z,19.40
2019-05-21T16:08:21.834Z,19.40
2019-05-21T16:10:25.628Z,18.75
2019-05-21T16:12:29.274Z,18.75
2019-05-21T16:14:32.934Z,19.32
2019-05-21T16:16:36.574Z,18.25
2019-05-21T16:18:40.369Z,18.42
2019-05-21T16:20:44.048Z,20.68
2019-05-21T16:22:47.691Z,18.75
2019-05-21T16:24:51.404Z,18.50
2019-05-21T16:26:55.103Z,18.75
2019-05-21T16:28:58.838Z,18.82
2019-05-21T16:31:02.495Z,21.87
2019-05-21T16:33:06.237Z,21.40
2019-05-21T16:35:10.617Z,24.37
2019-05-21T16:37:14.575Z,23.12
2019-05-21T16:39:19.921Z,23.02
2019-05-21T16:41:24.813Z,23.40
2019-05-21T16:43:28.865Z,23.07
2019-05-21T16:45:32.516Z,22.10
2019-05-21T16:47:45.512Z,23.38
2019-05-21T16:49:41.693Z,23.92
2019-05-21T16:51:45.334Z,23.12
2019-05-21T16:53:49.147Z,23.20
2019-05-21T16:55:52.916Z,22.87
2019-05-21T16:57:56.943Z,22.17
2019-05-21T17:00:00.764Z,22.32
2019-05-21T17:02:07.088Z,23.10
2019-05-21T17:04:10.722Z,22.85
2019-05-21T17:06:14.476Z,22.55
2019-05-21T17:08:18.206Z,20.97
2019-05-21T17:10:22.096Z,20.62
2019-05-21T17:12:25.830Z,22.55
2019-05-21T17:14:30.357Z,20.60
2019-05-21T17:16:34.093Z,20.45
2019-05-21T17:18:37.771Z,21.65
2019-05-21T17:20:41.531Z,20.80
2019-05-21T17:22:45.325Z,20.45
2019-05-21T17:24:49.117Z,19.77
2019-05-21T17:26:52.838Z,19.77
2019-05-21T17:28:56.619Z,20.32
2019-05-21T17:31:00.406Z,20.70
2019-05-21T17:33:04.486Z,21.48
2019-05-21T17:35:08.422Z,19.40
2019-05-21T17:37:12.196Z,21.23
2019-05-21T17:39:16.148Z,20.62
2019-05-21T17:41:19.905Z,20.12
2019-05-21T17:43:23.663Z,20.88
2019-05-21T17:45:27.387Z,20.77
2019-05-21T17:47:31.060Z,20.50
2019-05-21T17:49:34.828Z,19.65
2019-05-21T17:51:38.778Z,21.70
2019-05-21T17:53:42.507Z,20.27
2019-05-21T17:55:46.248Z,19.52
2019-05-21T17:57:50.183Z,20.85
2019-05-21T17:59:53.909Z,19.92
2019-05-21T18:01:57.844Z,20.68
2019-05-21T18:04:01.559Z,21.85
2019-05-21T18:06:06.993Z,21.45
2019-05-21T18:08:10.702Z,21.25
2019-05-21T18:10:14.996Z,20.75
2019-05-21T18:12:31.787Z,20.45
2019-05-21T18:14:25.009Z,21.20
2019-05-21T18:16:29.234Z,21.90
2019-05-21T18:18:33.477Z,21.95
2019-05-21T18:20:38.118Z,22.30
2019-05-21T18:22:44.079Z,23.42
2019-05-21T18:24:48.784Z,21.60
2019-05-21T18:26:52.842Z,22.98
2019-05-21T18:28:56.614Z,24.43
2019-05-21T18:31:00.436Z,23.10
2019-05-21T18:33:04.541Z,23.60
2019-05-21T18:35:08.567Z,23.65
2019-05-21T18:37:12.336Z,24.05
2019-05-21T18:39:16.132Z,24.52
2019-05-21T18:41:20.120Z,24.55
2019-05-21T18:43:23.836Z,24.65
2019-05-21T18:45:27.628Z,23.98
2019-05-21T18:47:31.444Z,25.05
2019-05-21T18:49:35.352Z,24.87
2019-05-21T18:51:39.156Z,22.62
2019-05-21T18:53:43.116Z,23.65
2019-05-21T18:55:46.888Z,24.45
2019-05-21T18:57:50.673Z,23.27
2019-05-21T18:59:54.414Z,23.10
2019-05-21T19:01:58.251Z,22.55
2019-05-21T19:04:03.503Z,22.22
2019-05-21T19:06:07.255Z,20.97
2019-05-21T19:08:11.088Z,22.75
2019-05-21T19:10:15.938Z,21.70
2019-05-21T19:12:19.699Z,21.17
2019-05-21T19:14:23.525Z,20.90
2019-05-21T19:16:29.916Z,21.48
2019-05-21T19:18:32.883Z,20.85
2019-05-21T19:20:36.688Z,20.62
2019-05-21T19:22:40.474Z,21.35
2019-05-21T19:24:44.397Z,21.07
2019-05-21T19:26:48.240Z,21.27
2019-05-21T19:28:52.368Z,20.48
2019-05-21T19:30:56.258Z,21.65
2019-05-21T19:33:00.124Z,21.17
2019-05-21T19:35:04.205Z,21.55
2019-05-21T19:37:08.038Z,22.52
2019-05-21T19:39:12.170Z,22.10
2019-05-21T19:41:16.004Z,22.05
2019-05-21T19:43:19.763Z,21.97
2019-05-21T19:45:23.632Z,22.62
2019-05-21T19:47:27.528Z,22.40
2019-05-21T19:49:31.350Z,22.40
2019-05-21T19:51:35.368Z,23.10
2019-05-21T19:53:39.211Z,23.45
2019-05-21T19:55:42.950Z,23.32
2019-05-21T19:57:47.326Z,23.25
2019-05-21T19:59:51.007Z,22.67
2019-05-21T20:01:56.014Z,22.48
2019-05-21T20:04:00.077Z,21.73
2019-05-21T20:06:04.422Z,24.00
2019-05-21T20:08:08.274Z,23.85
2019-05-21T20:10:13.416Z,22.45
2019-05-21T20:12:18.189Z,22.35
2019-05-21T20:14:22.006Z,23.18
2019-05-21T20:16:25.976Z,21.52
2019-05-21T20:18:29.888Z,22.05
2019-05-21T20:20:34.050Z,20.95
2019-05-21T20:22:39.809Z,20.48
2019-05-21T20:24:43.874Z,21.48
2019-05-21T20:26:47.667Z,21.17
2019-05-21T20:28:51.354Z,20.97
2019-05-21T20:30:55.750Z,19.23
2019-05-21T20:32:59.501Z,20.57
2019-05-21T20:35:04.047Z,19.73
2019-05-21T20:37:09.714Z,19.77
2019-05-21T20:39:16.332Z,20.48
2019-05-21T20:41:19.969Z,20.12
2019-05-21T20:43:24.242Z,19.67
2019-05-21T20:45:28.222Z,20.45
2019-05-21T20:47:33.013Z,20.77
2019-05-21T20:49:36.847Z,19.25
2019-05-21T20:51:41.302Z,19.48
2019-05-21T20:53:45.367Z,19.82
2019-05-21T20:55:49.541Z,19.98
2019-05-21T20:57:53.888Z,22.20
2019-05-21T20:59:57.839Z,20.97
2019-05-21T21:02:04.714Z,20.23
2019-05-21T21:04:07.891Z,21.33
2019-05-21T21:06:11.810Z,20.88
2019-05-21T21:08:15.940Z,20.75
2019-05-21T21:10:19.891Z,21.12
2019-05-21T21:12:23.819Z,20.62
2019-05-21T21:14:28.566Z,23.42
2019-05-21T21:16:32.328Z,21.85
2019-05-21T21:18:36.044Z,22.07
2019-05-21T21:20:40.007Z,21.77
2019-05-21T21:22:43.659Z,21.48
2019-05-21T21:24:47.660Z,23.40
2019-05-21T21:26:51.414Z,22.73
2019-05-21T21:28:55.310Z,23.27
2019-05-21T21:31:00.432Z,23.75
2019-05-21T21:33:04.366Z,24.35
2019-05-21T21:35:10.682Z,22.87
2019-05-21T21:37:14.377Z,24.25
2019-05-21T21:39:18.589Z,25.25
2019-05-21T21:41:22.820Z,24.12
2019-05-21T21:43:26.928Z,24.82
2019-05-21T21:45:30.753Z,23.98
2019-05-21T21:47:34.902Z,24.75
2019-05-21T21:52:23.948Z,25.45
2019-05-21T21:55:01.635Z,24.95
2019-05-21T21:59:51.322Z,25.62
2019-05-21T22:01:57.789Z,25.32
2019-05-21T22:04:04.170Z,26.77
2019-05-21T22:06:09.684Z,28.52
2019-05-21T22:08:13.806Z,26.48
2019-05-21T22:10:17.842Z,28.80
2019-05-21T22:12:24.428Z,27.70
2019-05-21T22:15:01.899Z,26.35
2019-05-21T22:17:07.603Z,26.57
2019-05-21T22:19:12.964Z,29.10
2019-05-21T22:21:17.611Z,28.17
2019-05-21T22:23:21.329Z,27.05
2019-05-21T22:25:25.444Z,27.82
2019-05-21T22:27:41.392Z,28.65
2019-05-21T22:30:16.765Z,27.65
2019-05-21T22:38:01.981Z,29.07
2019-05-21T22:40:05.920Z,30.70
2019-05-21T22:42:09.642Z,29.63
2019-05-21T22:44:13.795Z,29.30
